PWSweather.com
Personal Weather Stations
Station Observations
KCTCOLEB1
Sandy Brook, Colebrook, CT 06021

Sandy BrookColebrook, CT 06021

Lat: 42.0018, Lon: -73.0825

Elevation: 935

Station Type: Davis Vantage Pro2 + Solar + UV

Latest ConditionsUpdated 11:40:01 PM EDT Sunday, May 19, 2019
Currently Today's Max Today's Min Today's Average
Temperature 65.3°F18.5°C 82.7°F28.2°C 47.3°F8.5°C 63.2°F17.3°C
Dew Point 63.5°F17.5°C 65.6°F18.7°C 45.5°F7.5°C 57.6°F14.2°C
Winds 1.2 mph NNW1.9 kmh NNW 4.6 mph -7.4 kmh - - 0.8 mph 1.3 kmh
Wind Gusts 2.3 mph3.7 kmh 11.5 mph18.5 kmh - -
Humidity 94% 98% 53% 84%
Pressure 29.89 in1012.2 mb 30.05 in1017.6 mb 29.86 in1011.2 mb -
Precipitation - 0.08 in2.0 mm - -
Hour Temp Dew Point Humidity Winds Wind Gusts Pressure Precip Precip Rate Daily Precip Total
11:40 PM 65.3°F18.5°C 63.5°F17.5°C 94% 1.2 mph NNW1.9 kmh NNW 2.3 mph3.7 kmh 29.89 in1012.2 mb - 0.00 in0.0 mm 0.08 in2.0 mm
11:30 PM 65.7°F18.7°C 63.3°F17.4°C 92% Calm Calm 2.3 mph3.7 kmh 29.88 in1011.9 mb - 0.00 in0.0 mm 0.08 in2.0 mm
11:20 PM 66.1°F18.9°C 63.7°F17.6°C 92% Calm Calm -- 29.86 in1011.2 mb - 0.01 in0.3 mm 0.08 in2.0 mm
11:10 PM 66.7°F19.3°C 64.0°F17.8°C 91% 1.2 mph NW1.9 kmh NW 1.2 mph1.9 kmh 29.86 in1011.2 mb - 0.00 in0.0 mm 0.07 in1.8 mm
11:00 PM 67.0°F19.4°C 64.3°F17.9°C 91% Calm Calm -- 29.86 in1011.2 mb - 0.00 in0.0 mm 0.07 in1.8 mm
10:50 PM 67.3°F19.6°C 64.6°F18.1°C 91% 1.2 mph NW1.9 kmh NW 2.3 mph3.7 kmh 29.87 in1011.5 mb - 0.00 in0.0 mm 0.07 in1.8 mm
10:40 PM 67.4°F19.7°C 65.3°F18.5°C 93% 1.2 mph NW1.9 kmh NW 2.3 mph3.7 kmh 29.87 in1011.5 mb - 0.00 in0.0 mm 0.07 in1.8 mm
10:30 PM 67.2°F19.6°C 65.1°F18.4°C 93% Calm Calm 1.2 mph1.9 kmh 29.89 in1012.2 mb - 0.00 in0.0 mm 0.07 in1.8 mm
10:20 PM 67.1°F19.5°C 64.7°F18.2°C 92% Calm Calm -- 29.89 in1012.2 mb - 0.00 in0.0 mm 0.07 in1.8 mm
10:10 PM 67.3°F19.6°C 64.9°F18.3°C 92% Calm Calm 1.2 mph1.9 kmh 29.87 in1011.5 mb - 0.00 in0.0 mm 0.07 in1.8 mm
10:00 PM 67.3°F19.6°C 64.9°F18.3°C 92% Calm Calm 2.3 mph3.7 kmh 29.89 in1012.2 mb - 0.00 in0.0 mm 0.07 in1.8 mm
09:50 PM 67.4°F19.7°C 64.7°F18.2°C 91% 1.2 mph NNW1.9 kmh NNW 3.5 mph5.6 kmh 29.89 in1012.2 mb - 0.00 in0.0 mm 0.07 in1.8 mm
09:40 PM 67.6°F19.8°C 64.9°F18.3°C 91% 1.2 mph SE1.9 kmh SE 2.3 mph3.7 kmh 29.88 in1011.9 mb - 0.00 in0.0 mm 0.07 in1.8 mm
09:30 PM 67.7°F19.8°C 65.0°F18.3°C 91% 1.2 mph SE1.9 kmh SE 1.2 mph1.9 kmh 29.88 in1011.9 mb - 0.00 in0.0 mm 0.07 in1.8 mm
09:20 PM 67.8°F19.9°C 65.1°F18.4°C 91% 1.2 mph S1.9 kmh S 2.3 mph3.7 kmh 29.88 in1011.9 mb - 0.00 in0.0 mm 0.07 in1.8 mm
09:10 PM 68.0°F20.0°C 65.0°F18.3°C 90% 1.2 mph S1.9 kmh S 2.3 mph3.7 kmh 29.87 in1011.5 mb - 0.00 in0.0 mm 0.07 in1.8 mm
09:00 PM 68.1°F20.1°C 64.7°F18.2°C 89% Calm Calm 1.2 mph1.9 kmh 29.87 in1011.5 mb - 0.00 in0.0 mm 0.07 in1.8 mm
08:50 PM 68.3°F20.2°C 64.9°F18.3°C 89% 1.2 mph SSE1.9 kmh SSE 2.3 mph3.7 kmh 29.87 in1011.5 mb - 0.00 in0.0 mm 0.07 in1.8 mm
08:40 PM 68.5°F20.3°C 65.1°F18.4°C 89% Calm Calm -- 29.87 in1011.5 mb - 0.00 in0.0 mm 0.07 in1.8 mm
08:30 PM 68.6°F20.3°C 64.9°F18.3°C 88% Calm Calm 3.5 mph5.6 kmh 29.87 in1011.5 mb - 0.00 in0.0 mm 0.07 in1.8 mm
08:20 PM 68.8°F20.4°C 65.1°F18.4°C 88% Calm Calm -- 29.88 in1011.9 mb - 0.00 in0.0 mm 0.07 in1.8 mm
08:10 PM 69.1°F20.6°C 65.1°F18.4°C 87% 1.2 mph SE1.9 kmh SE 3.5 mph5.6 kmh 29.88 in1011.9 mb - 0.00 in0.0 mm 0.07 in1.8 mm
08:00 PM 69.4°F20.8°C 65.0°F18.3°C 86% 1.2 mph SW1.9 kmh SW 2.3 mph3.7 kmh 29.88 in1011.9 mb - 0.00 in0.0 mm 0.07 in1.8 mm
07:50 PM 69.6°F20.9°C 64.9°F18.3°C 85% 1.2 mph ESE1.9 kmh ESE 3.5 mph5.6 kmh 29.88 in1011.9 mb - 0.00 in0.0 mm 0.07 in1.8 mm
07:40 PM 69.9°F21.1°C 65.2°F18.4°C 85% 1.2 mph WSW1.9 kmh WSW 1.2 mph1.9 kmh 29.88 in1011.9 mb - 0.00 in0.0 mm 0.07 in1.8 mm
07:30 PM 70.1°F21.2°C 64.7°F18.2°C 83% Calm Calm -- 29.89 in1012.2 mb - 0.00 in0.0 mm 0.07 in1.8 mm
07:20 PM 70.3°F21.3°C 64.9°F18.3°C 83% Calm Calm -- 29.89 in1012.2 mb - 0.00 in0.0 mm 0.07 in1.8 mm
07:10 PM 70.6°F21.4°C 64.8°F18.2°C 82% 2.3 mph E3.7 kmh E 3.5 mph5.6 kmh 29.88 in1011.9 mb - 0.00 in0.0 mm 0.07 in1.8 mm
07:00 PM 70.9°F21.6°C 64.8°F18.2°C 81% 1.2 mph S1.9 kmh S 3.5 mph5.6 kmh 29.89 in1012.2 mb - 0.00 in0.0 mm 0.07 in1.8 mm
06:50 PM 71.4°F21.9°C 64.9°F18.3°C 80% 1.2 mph E1.9 kmh E 3.5 mph5.6 kmh 29.89 in1012.2 mb - 0.00 in0.0 mm 0.07 in1.8 mm
06:40 PM 71.8°F22.1°C 64.9°F18.3°C 79% 2.3 mph ENE3.7 kmh ENE 3.5 mph5.6 kmh 29.89 in1012.2 mb - 0.00 in0.0 mm 0.07 in1.8 mm
06:30 PM 72.1°F22.3°C 64.9°F18.3°C 78% 1.2 mph SSE1.9 kmh SSE 3.5 mph5.6 kmh 29.89 in1012.2 mb - 0.00 in0.0 mm 0.07 in1.8 mm
06:20 PM 72.5°F22.5°C 64.9°F18.3°C 77% 1.2 mph S1.9 kmh S 3.5 mph5.6 kmh 29.89 in1012.2 mb - 0.00 in0.0 mm 0.07 in1.8 mm
06:10 PM 73.0°F22.8°C 64.6°F18.1°C 75% 2.3 mph SE3.7 kmh SE 3.5 mph5.6 kmh 29.89 in1012.2 mb - 0.00 in0.0 mm 0.07 in1.8 mm
06:00 PM 73.7°F23.2°C 64.9°F18.3°C 74% 1.2 mph E1.9 kmh E 3.5 mph5.6 kmh 29.89 in1012.2 mb - 0.00 in0.0 mm 0.07 in1.8 mm
05:50 PM 74.5°F23.6°C 64.9°F18.3°C 72% 2.3 mph ESE3.7 kmh ESE 3.5 mph5.6 kmh 29.89 in1012.2 mb - 0.00 in0.0 mm 0.07 in1.8 mm
05:40 PM 75.3°F24.1°C 64.8°F18.2°C 70% 1.2 mph N1.9 kmh N 3.5 mph5.6 kmh 29.90 in1012.5 mb - 0.00 in0.0 mm 0.07 in1.8 mm
05:30 PM 75.8°F24.3°C 64.9°F18.3°C 69% 2.3 mph SW3.7 kmh SW 3.5 mph5.6 kmh 29.90 in1012.5 mb - 0.00 in0.0 mm 0.07 in1.8 mm
05:20 PM 76.0°F24.4°C 65.1°F18.4°C 69% 2.3 mph ESE3.7 kmh ESE 3.5 mph5.6 kmh 29.90 in1012.5 mb - 0.00 in0.0 mm 0.07 in1.8 mm
05:10 PM 76.0°F24.4°C 65.1°F18.4°C 69% 1.2 mph SSE1.9 kmh SSE 2.3 mph3.7 kmh 29.90 in1012.5 mb - 0.00 in0.0 mm 0.07 in1.8 mm
05:00 PM 76.4°F24.7°C 64.6°F18.1°C 67% 2.3 mph NE3.7 kmh NE 3.5 mph5.6 kmh 29.90 in1012.5 mb - 0.00 in0.0 mm 0.07 in1.8 mm
04:50 PM 76.9°F24.9°C 64.3°F17.9°C 65% 3.5 mph WSW5.6 kmh WSW 6.9 mph11.1 kmh 29.90 in1012.5 mb - 0.00 in0.0 mm 0.07 in1.8 mm
04:40 PM 77.1°F25.1°C 64.4°F18.0°C 65% 2.3 mph ENE3.7 kmh ENE 5.8 mph9.3 kmh 29.90 in1012.5 mb - 0.00 in0.0 mm 0.07 in1.8 mm
04:30 PM 76.9°F24.9°C 64.2°F17.9°C 65% 1.2 mph S1.9 kmh S 2.3 mph3.7 kmh 29.90 in1012.5 mb - 0.00 in0.0 mm 0.07 in1.8 mm
04:20 PM 76.6°F24.8°C 64.0°F17.8°C 65% 3.5 mph ENE5.6 kmh ENE 3.5 mph5.6 kmh 29.91 in1012.9 mb - 0.00 in0.0 mm 0.07 in1.8 mm
04:10 PM 77.5°F25.3°C 63.5°F17.5°C 62% 2.3 mph ENE3.7 kmh ENE 5.8 mph9.3 kmh 29.92 in1013.2 mb - 0.00 in0.0 mm 0.07 in1.8 mm
04:00 PM 78.7°F25.9°C 63.6°F17.6°C 60% 1.2 mph NE1.9 kmh NE 2.3 mph3.7 kmh 29.92 in1013.2 mb - 0.00 in0.0 mm 0.07 in1.8 mm
03:50 PM 79.3°F26.3°C 63.7°F17.6°C 59% 3.5 mph ESE5.6 kmh ESE 10.4 mph16.7 kmh 29.92 in1013.2 mb - 0.00 in0.0 mm 0.07 in1.8 mm
03:40 PM 80.9°F27.2°C 64.2°F17.9°C 57% 2.3 mph E3.7 kmh E 5.8 mph9.3 kmh 29.93 in1013.5 mb - 0.00 in0.0 mm 0.07 in1.8 mm
03:30 PM 81.2°F27.3°C 63.5°F17.5°C 55% 3.5 mph S5.6 kmh S 5.8 mph9.3 kmh 29.93 in1013.5 mb - 0.00 in0.0 mm 0.07 in1.8 mm
03:20 PM 81.1°F27.3°C 63.4°F17.4°C 55% 2.3 mph ESE3.7 kmh ESE 3.5 mph5.6 kmh 29.93 in1013.5 mb - 0.00 in0.0 mm 0.07 in1.8 mm
03:10 PM 81.7°F27.6°C 64.5°F18.1°C 56% 2.3 mph E3.7 kmh E 3.5 mph5.6 kmh 29.93 in1013.5 mb - 0.00 in0.0 mm 0.07 in1.8 mm
03:00 PM 81.3°F27.4°C 63.5°F17.5°C 55% 2.3 mph SE3.7 kmh SE 2.3 mph3.7 kmh 29.94 in1013.9 mb - 0.00 in0.0 mm 0.07 in1.8 mm
02:50 PM 80.2°F26.8°C 63.6°F17.6°C 57% 1.2 mph ENE1.9 kmh ENE 2.3 mph3.7 kmh 29.95 in1014.2 mb - 0.00 in0.0 mm 0.07 in1.8 mm
02:40 PM 79.7°F26.5°C 64.6°F18.1°C 60% Calm Calm 2.3 mph3.7 kmh 29.95 in1014.2 mb - 0.00 in0.0 mm 0.07 in1.8 mm
02:30 PM 80.6°F27.0°C 63.5°F17.5°C 56% 2.3 mph E3.7 kmh E 2.3 mph3.7 kmh 29.95 in1014.2 mb - 0.00 in0.0 mm 0.07 in1.8 mm
02:20 PM 82.4°F28.0°C 63.6°F17.6°C 53% 2.3 mph SSE3.7 kmh SSE 5.8 mph9.3 kmh 29.95 in1014.2 mb - 0.00 in0.0 mm 0.07 in1.8 mm
02:10 PM 82.7°F28.2°C 64.9°F18.3°C 55% 3.5 mph SSE5.6 kmh SSE 11.5 mph18.5 kmh 29.95 in1014.2 mb - 0.00 in0.0 mm 0.07 in1.8 mm
02:00 PM 82.0°F27.8°C 64.8°F18.2°C 56% 4.6 mph NE7.4 kmh NE 8.1 mph13.0 kmh 29.95 in1014.2 mb - 0.00 in0.0 mm 0.07 in1.8 mm
01:50 PM 82.1°F27.8°C 64.8°F18.2°C 56% 2.3 mph WNW3.7 kmh WNW 3.5 mph5.6 kmh 29.95 in1014.2 mb - 0.00 in0.0 mm 0.07 in1.8 mm
01:40 PM 81.0°F27.2°C 64.8°F18.2°C 58% 2.3 mph ESE3.7 kmh ESE 3.5 mph5.6 kmh 29.95 in1014.2 mb - 0.00 in0.0 mm 0.07 in1.8 mm
01:30 PM 79.7°F26.5°C 64.6°F18.1°C 60% 3.5 mph E5.6 kmh E 3.5 mph5.6 kmh 29.96 in1014.6 mb - 0.00 in0.0 mm 0.07 in1.8 mm
01:20 PM 78.6°F25.9°C 64.0°F17.8°C 61% 3.5 mph NE5.6 kmh NE 6.9 mph11.1 kmh 29.96 in1014.6 mb - 0.00 in0.0 mm 0.07 in1.8 mm
01:10 PM 78.0°F25.6°C 64.8°F18.2°C 64% 1.2 mph S1.9 kmh S 3.5 mph5.6 kmh 29.97 in1014.9 mb - 0.00 in0.0 mm 0.07 in1.8 mm
01:00 PM 76.7°F24.8°C 64.9°F18.3°C 67% 1.2 mph SE1.9 kmh SE 6.9 mph11.1 kmh 29.97 in1014.9 mb - 0.00 in0.0 mm 0.07 in1.8 mm
12:50 PM 75.5°F24.2°C 63.8°F17.7°C 67% 3.5 mph SE5.6 kmh SE 6.9 mph11.1 kmh 29.97 in1014.9 mb - 0.00 in0.0 mm 0.07 in1.8 mm
12:40 PM 73.9°F23.3°C 64.7°F18.2°C 73% 2.3 mph E3.7 kmh E 3.5 mph5.6 kmh 29.98 in1015.2 mb - 0.00 in0.0 mm 0.07 in1.8 mm
12:30 PM 73.9°F23.3°C 65.5°F18.6°C 75% Calm Calm 2.3 mph3.7 kmh 29.99 in1015.6 mb - 0.00 in0.0 mm 0.07 in1.8 mm
12:20 PM 74.0°F23.3°C 65.6°F18.7°C 75% 2.3 mph NE3.7 kmh NE 2.3 mph3.7 kmh 29.99 in1015.6 mb - 0.00 in0.0 mm 0.07 in1.8 mm
12:10 PM 73.8°F23.2°C 64.6°F18.1°C 73% 2.3 mph E3.7 kmh E 3.5 mph5.6 kmh 29.99 in1015.6 mb - 0.00 in0.0 mm 0.07 in1.8 mm
12:00 PM 72.9°F22.7°C 64.9°F18.3°C 76% 1.2 mph ESE1.9 kmh ESE 3.5 mph5.6 kmh 29.99 in1015.6 mb - 0.00 in0.0 mm 0.07 in1.8 mm
11:50 AM 71.3°F21.8°C 64.0°F17.8°C 78% 1.2 mph NW1.9 kmh NW 3.5 mph5.6 kmh 30.00 in1015.9 mb - 0.00 in0.0 mm 0.07 in1.8 mm
11:40 AM 69.9°F21.1°C 65.2°F18.4°C 85% 1.2 mph E1.9 kmh E 1.2 mph1.9 kmh 30.00 in1015.9 mb - 0.00 in0.0 mm 0.07 in1.8 mm
11:30 AM 67.6°F19.8°C 64.9°F18.3°C 91% 1.2 mph NE1.9 kmh NE 2.3 mph3.7 kmh 30.01 in1016.3 mb - 0.00 in0.0 mm 0.07 in1.8 mm
11:20 AM 65.1°F18.4°C 62.1°F16.7°C 90% Calm Calm -- 30.01 in1016.3 mb - 0.00 in0.0 mm 0.07 in1.8 mm
11:10 AM 63.6°F17.6°C 61.3°F16.3°C 92% Calm Calm 2.3 mph3.7 kmh 30.02 in1016.6 mb - 0.00 in0.0 mm 0.07 in1.8 mm
11:00 AM 63.0°F17.2°C 60.6°F15.9°C 92% Calm Calm -- 30.02 in1016.6 mb - 0.00 in0.0 mm 0.07 in1.8 mm
10:50 AM 62.0°F16.7°C 59.9°F15.5°C 93% Calm Calm -- 30.02 in1016.6 mb - 0.00 in0.0 mm 0.07 in1.8 mm
10:40 AM 60.7°F15.9°C 58.7°F14.8°C 93% Calm Calm -- 30.02 in1016.6 mb - 0.00 in0.0 mm 0.07 in1.8 mm
10:30 AM 59.6°F15.3°C 57.9°F14.4°C 94% 1.2 mph SW1.9 kmh SW 2.3 mph3.7 kmh 30.02 in1016.6 mb - 0.00 in0.0 mm 0.07 in1.8 mm
10:20 AM 59.1°F15.1°C 57.7°F14.3°C 95% 1.2 mph SW1.9 kmh SW 2.3 mph3.7 kmh 30.02 in1016.6 mb - 0.00 in0.0 mm 0.07 in1.8 mm
10:10 AM 58.6°F14.8°C 57.4°F14.1°C 96% 1.2 mph WSW1.9 kmh WSW 2.3 mph3.7 kmh 30.02 in1016.6 mb - 0.00 in0.0 mm 0.07 in1.8 mm
10:00 AM 57.7°F14.3°C 56.9°F13.8°C 97% Calm Calm -- 30.02 in1016.6 mb - 0.00 in0.0 mm 0.07 in1.8 mm
09:50 AM 57.1°F13.9°C 56.3°F13.5°C 97% Calm Calm -- 30.02 in1016.6 mb - 0.00 in0.0 mm 0.07 in1.8 mm
09:40 AM 56.6°F13.7°C 55.8°F13.2°C 97% 1.2 mph ESE1.9 kmh ESE 2.3 mph3.7 kmh 30.03 in1016.9 mb - 0.00 in0.0 mm 0.07 in1.8 mm
09:30 AM 56.4°F13.6°C 55.5°F13.1°C 97% Calm Calm -- 30.03 in1016.9 mb - 0.00 in0.0 mm 0.07 in1.8 mm
09:20 AM 56.0°F13.3°C 55.4°F13.0°C 98% Calm Calm -- 30.04 in1017.3 mb - 0.00 in0.0 mm 0.07 in1.8 mm
09:10 AM 55.9°F13.3°C 55.3°F12.9°C 98% Calm Calm -- 30.04 in1017.3 mb - 0.00 in0.0 mm 0.07 in1.8 mm
09:00 AM 54.7°F12.6°C 54.1°F12.3°C 98% Calm Calm -- 30.03 in1016.9 mb - 0.00 in0.0 mm 0.07 in1.8 mm
08:50 AM 53.9°F12.2°C 53.1°F11.7°C 97% Calm Calm -- 30.04 in1017.3 mb - 0.00 in0.0 mm 0.07 in1.8 mm
08:40 AM 53.3°F11.8°C 52.5°F11.4°C 97% Calm Calm -- 30.04 in1017.3 mb - 0.00 in0.0 mm 0.07 in1.8 mm
08:30 AM 52.7°F11.5°C 51.8°F11.0°C 97% Calm Calm -- 30.04 in1017.3 mb - 0.00 in0.0 mm 0.07 in1.8 mm
08:20 AM 52.4°F11.3°C 51.6°F10.9°C 97% Calm Calm -- 30.04 in1017.3 mb - 0.00 in0.0 mm 0.07 in1.8 mm
08:10 AM 52.0°F11.1°C 51.2°F10.7°C 97% Calm Calm -- 30.05 in1017.6 mb - 0.00 in0.0 mm 0.07 in1.8 mm
08:00 AM 51.8°F11.0°C 51.0°F10.6°C 97% Calm Calm -- 30.05 in1017.6 mb - 0.07 in1.8 mm 0.07 in1.8 mm
07:50 AM 51.4°F10.8°C 50.6°F10.3°C 97% Calm Calm -- 30.05 in1017.6 mb - 0.00 in0.0 mm 0.00 in0.0 mm
07:40 AM 51.0°F10.6°C 50.2°F10.1°C 97% Calm Calm -- 30.05 in1017.6 mb - 0.00 in0.0 mm 0.00 in0.0 mm
07:30 AM 50.5°F10.3°C 49.7°F9.8°C 97% Calm Calm -- 30.05 in1017.6 mb - 0.00 in0.0 mm 0.00 in0.0 mm
07:20 AM 49.9°F9.9°C 49.1°F9.5°C 97% Calm Calm -- 30.05 in1017.6 mb - 0.00 in0.0 mm 0.00 in0.0 mm
07:10 AM 49.4°F9.7°C 48.3°F9.1°C 96% Calm Calm -- 30.04 in1017.3 mb - 0.00 in0.0 mm 0.00 in0.0 mm
07:00 AM 48.8°F9.3°C 47.7°F8.7°C 96% Calm Calm -- 30.04 in1017.3 mb - 0.00 in0.0 mm 0.00 in0.0 mm
06:50 AM 48.3°F9.1°C 47.3°F8.5°C 96% Calm Calm -- 30.03 in1016.9 mb - 0.00 in0.0 mm 0.00 in0.0 mm
06:40 AM 47.9°F8.8°C 46.8°F8.2°C 96% Calm Calm -- 30.03 in1016.9 mb - 0.00 in0.0 mm 0.00 in0.0 mm
06:30 AM 47.7°F8.7°C 46.3°F7.9°C 95% Calm Calm -- 30.03 in1016.9 mb - 0.00 in0.0 mm 0.00 in0.0 mm
06:20 AM 47.5°F8.6°C 46.1°F7.8°C 95% Calm Calm -- 30.03 in1016.9 mb - 0.00 in0.0 mm 0.00 in0.0 mm
06:10 AM 47.3°F8.5°C 45.7°F7.6°C 94% Calm Calm -- 30.03 in1016.9 mb - 0.00 in0.0 mm 0.00 in0.0 mm
06:00 AM 47.3°F8.5°C 45.7°F7.6°C 94% Calm Calm -- 30.03 in1016.9 mb - 0.00 in0.0 mm 0.00 in0.0 mm
05:50 AM 47.3°F8.5°C 45.7°F7.6°C 94% Calm Calm -- 30.03 in1016.9 mb - 0.00 in0.0 mm 0.00 in0.0 mm
05:40 AM 47.4°F8.6°C 45.5°F7.5°C 93% Calm Calm -- 30.03 in1016.9 mb - 0.00 in0.0 mm 0.00 in0.0 mm
05:30 AM 47.6°F8.7°C 45.7°F7.6°C 93% Calm Calm -- 30.03 in1016.9 mb - 0.00 in0.0 mm 0.00 in0.0 mm
05:20 AM 47.7°F8.7°C 45.8°F7.7°C 93% Calm Calm -- 30.02 in1016.6 mb - 0.00 in0.0 mm 0.00 in0.0 mm
05:10 AM 47.9°F8.8°C 46.0°F7.8°C 93% Calm Calm -- 30.02 in1016.6 mb - 0.00 in0.0 mm 0.00 in0.0 mm
05:00 AM 48.1°F8.9°C 46.2°F7.9°C 93% Calm Calm -- 30.02 in1016.6 mb - 0.00 in0.0 mm 0.00 in0.0 mm
04:50 AM 48.3°F9.1°C 46.1°F7.8°C 92% Calm Calm -- 30.02 in1016.6 mb - 0.00 in0.0 mm 0.00 in0.0 mm
04:40 AM 48.5°F9.2°C 46.3°F7.9°C 92% Calm Calm -- 30.02 in1016.6 mb - 0.00 in0.0 mm 0.00 in0.0 mm
04:30 AM 48.7°F9.3°C 46.5°F8.1°C 92% Calm Calm -- 30.02 in1016.6 mb - 0.00 in0.0 mm 0.00 in0.0 mm
04:20 AM 49.0°F9.4°C 46.8°F8.2°C 92% Calm Calm -- 30.02 in1016.6 mb - 0.00 in0.0 mm 0.00 in0.0 mm
04:10 AM 49.3°F9.6°C 46.8°F8.2°C 91% Calm Calm -- 30.02 in1016.6 mb - 0.00 in0.0 mm 0.00 in0.0 mm
04:00 AM 49.5°F9.7°C 47.0°F8.3°C 91% Calm Calm -- 30.02 in1016.6 mb - 0.00 in0.0 mm 0.00 in0.0 mm
03:50 AM 49.7°F9.8°C 47.2°F8.4°C 91% Calm Calm -- 30.02 in1016.6 mb - 0.00 in0.0 mm 0.00 in0.0 mm
03:40 AM 49.9°F9.9°C 47.4°F8.6°C 91% Calm Calm -- 30.02 in1016.6 mb - 0.00 in0.0 mm 0.00 in0.0 mm
03:30 AM 50.1°F10.1°C 47.3°F8.5°C 90% Calm Calm -- 30.02 in1016.6 mb - 0.00 in0.0 mm 0.00 in0.0 mm
03:20 AM 50.3°F10.2°C 47.5°F8.6°C 90% Calm Calm -- 30.02 in1016.6 mb - 0.00 in0.0 mm 0.00 in0.0 mm
03:10 AM 50.5°F10.3°C 47.7°F8.7°C 90% Calm Calm -- 30.02 in1016.6 mb - 0.00 in0.0 mm 0.00 in0.0 mm
03:00 AM 50.7°F10.4°C 47.9°F8.8°C 90% Calm Calm -- 30.02 in1016.6 mb - 0.00 in0.0 mm 0.00 in0.0 mm
02:50 AM 51.0°F10.6°C 48.2°F9.0°C 90% Calm Calm -- 30.01 in1016.3 mb - 0.00 in0.0 mm 0.00 in0.0 mm
02:40 AM 51.1°F10.6°C 48.3°F9.1°C 90% Calm Calm -- 30.01 in1016.3 mb - 0.00 in0.0 mm 0.00 in0.0 mm
02:30 AM 51.2°F10.7°C 48.4°F9.1°C 90% Calm Calm -- 30.02 in1016.6 mb - 0.00 in0.0 mm 0.00 in0.0 mm
02:20 AM 51.2°F10.7°C 48.4°F9.1°C 90% Calm Calm -- 30.02 in1016.6 mb - 0.00 in0.0 mm 0.00 in0.0 mm
02:10 AM 51.2°F10.7°C 48.4°F9.1°C 90% Calm Calm -- 30.02 in1016.6 mb - 0.00 in0.0 mm 0.00 in0.0 mm
02:00 AM 51.2°F10.7°C 48.1°F8.9°C 89% Calm Calm -- 30.02 in1016.6 mb - 0.00 in0.0 mm 0.00 in0.0 mm
01:50 AM 51.3°F10.7°C 48.2°F9.0°C 89% Calm Calm -- 30.02 in1016.6 mb - 0.00 in0.0 mm 0.00 in0.0 mm
01:40 AM 51.3°F10.7°C 48.2°F9.0°C 89% Calm Calm -- 30.02 in1016.6 mb - 0.00 in0.0 mm 0.00 in0.0 mm
01:30 AM 51.3°F10.7°C 48.2°F9.0°C 89% Calm Calm -- 30.03 in1016.9 mb - 0.00 in0.0 mm 0.00 in0.0 mm
01:20 AM 51.4°F10.8°C 48.3°F9.1°C 89% Calm Calm -- 30.03 in1016.9 mb - 0.00 in0.0 mm 0.00 in0.0 mm
01:10 AM 51.5°F10.8°C 48.1°F8.9°C 88% Calm Calm -- 30.04 in1017.3 mb - 0.00 in0.0 mm 0.00 in0.0 mm
01:00 AM 51.7°F10.9°C 48.0°F8.9°C 87% Calm Calm -- 30.05 in1017.6 mb - 0.00 in0.0 mm 0.00 in0.0 mm
12:50 AM 52.0°F11.1°C 47.6°F8.7°C 85% Calm Calm -- 30.04 in1017.3 mb - 0.00 in0.0 mm 0.00 in0.0 mm
12:40 AM 52.4°F11.3°C 48.0°F8.9°C 85% Calm Calm -- 30.04 in1017.3 mb - 0.00 in0.0 mm 0.00 in0.0 mm
12:30 AM 53.0°F11.7°C 48.3°F9.1°C 84% Calm Calm -- 30.04 in1017.3 mb - 0.00 in0.0 mm 0.00 in0.0 mm
12:20 AM 53.5°F11.9°C 48.5°F9.2°C 83% Calm Calm -- 30.04 in1017.3 mb - 0.00 in0.0 mm 0.00 in0.0 mm
12:10 AM 54.2°F12.3°C 48.8°F9.3°C 82% Calm Calm -- 30.03 in1016.9 mb - 0.00 in0.0 mm 0.00 in0.0 mm
12:00 AM 54.6°F12.6°C 49.3°F9.6°C 82% Calm Calm -- 30.03 in1016.9 mb - 0.00 in0.0 mm 0.00 in0.0 mm